Zottegem, Belgium
Current Conditions -  °F | °C
As of 4:25 PM on Sunday 23 Nov 2014 (Local Time) from EBCV Reporting Station
Broken Clouds Broken Clouds  
Wind Chill: 55°   Ceiling: 12000
Heat Index: 55°   Visibility: 6mi
Dew Point: 52°   Wind: 3mph
Humidity: 88%   Direction: 200°SSW
Pressure: 29.94"   Gusts: NA
Location:  50.87°N, 3.81°E
Report Text: EBCV 231525Z AUTO 20003KT 9999 SCT100/// BKN120/// 13/11 Q1014 BLU
Loading
Personal Weather Stations






























Interactive Weather Map New forecast layout! Learn more

10-Day Weather Forecast

Advertisements
Track Severe Weather on mobile